PWSweather.com
Personal Weather Stations
Station Observations
WD4JKH
Forsyth, GA 31029

Forsyth, GA 31029

Lat: 33.033225, Lon: -83.927995

Elevation: 709

Station Type: Davis Vantage VUE

High Low Average
Temperature 73.0°F22.8°C 54.2°F12.3°C 59.0°F15.0°C
Dew Point 47.7°F8.7°C 38.2°F3.4°C 40.6°F4.8°C
Winds 3.3 mph 5.3 kmh Calm Calm 1.0 mph WNW1.6 kmh WNW
Wind Gusts 10.0 mph16.1 kmh 1.0 mph1.6 kmh 4.0 mph6.4 kmh
Humidity 59% 34% 51%
Pressure 30.22 in1023.4 mb 30.15 in1021.0 mb -
Precipitation 0.00 in0.0 mm - -
Hour Temp Dew Point Humidity Winds Wind Gusts Pressure Precip Precip Rate Daily Precip Total
12:03 AM 60.1°F15.6°C 38.6°F3.7°C 45% 1.2 mph WNW1.9 kmh WNW 2.0 mph3.2 kmh 30.17 in1021.7 mb 0.00 in0.0 mm 0.00 in0.0 mm 0.00 in0.0 mm
12:08 AM 60.0°F15.6°C 38.5°F3.6°C 45% 1.2 mph WNW1.9 kmh WNW 2.0 mph3.2 kmh 30.17 in1021.7 mb 0.00 in0.0 mm 0.00 in0.0 mm 0.00 in0.0 mm
12:13 AM 60.0°F15.6°C 38.6°F3.7°C 45% 1.5 mph WNW2.4 kmh WNW 3.0 mph4.8 kmh 30.17 in1021.7 mb 0.00 in0.0 mm 0.00 in0.0 mm 0.00 in0.0 mm
12:18 AM 60.1°F15.6°C 38.6°F3.7°C 45% 1.4 mph WNW2.3 kmh WNW 3.0 mph4.8 kmh 30.17 in1021.7 mb 0.00 in0.0 mm 0.00 in0.0 mm 0.00 in0.0 mm
12:23 AM 60.2°F15.7°C 38.7°F3.7°C 45% 1.9 mph WNW3.1 kmh WNW 3.0 mph4.8 kmh 30.17 in1021.7 mb 0.00 in0.0 mm 0.00 in0.0 mm 0.00 in0.0 mm
12:28 AM 60.1°F15.6°C 38.6°F3.7°C 45% 1.6 mph WNW2.6 kmh WNW 3.0 mph4.8 kmh 30.17 in1021.7 mb 0.00 in0.0 mm 0.00 in0.0 mm 0.00 in0.0 mm
12:33 AM 60.1°F15.6°C 38.6°F3.7°C 45% 1.5 mph W2.4 kmh W 4.0 mph6.4 kmh 30.17 in1021.7 mb 0.00 in0.0 mm 0.00 in0.0 mm 0.00 in0.0 mm
12:38 AM 59.9°F15.5°C 38.5°F3.6°C 45% 1.9 mph W3.1 kmh W 4.0 mph6.4 kmh 30.17 in1021.7 mb 0.00 in0.0 mm 0.00 in0.0 mm 0.00 in0.0 mm
12:43 AM 59.6°F15.3°C 38.7°F3.7°C 46% 1.3 mph W2.1 kmh W 4.0 mph6.4 kmh 30.17 in1021.7 mb 0.00 in0.0 mm 0.00 in0.0 mm 0.00 in0.0 mm
12:48 AM 59.2°F15.1°C 38.4°F3.6°C 46% 1.7 mph WSW2.7 kmh WSW 4.0 mph6.4 kmh 30.17 in1021.7 mb 0.00 in0.0 mm 0.00 in0.0 mm 0.00 in0.0 mm
12:53 AM 58.9°F14.9°C 38.7°F3.7°C 47% 1.1 mph W1.8 kmh W 4.0 mph6.4 kmh 30.17 in1021.7 mb 0.00 in0.0 mm 0.00 in0.0 mm 0.00 in0.0 mm
12:58 AM 58.6°F14.8°C 38.4°F3.6°C 47% 1.6 mph W2.6 kmh W 3.0 mph4.8 kmh 30.17 in1021.7 mb 0.00 in0.0 mm 0.00 in0.0 mm 0.00 in0.0 mm
01:03 AM 58.4°F14.7°C 38.8°F3.8°C 48% 1.6 mph W2.6 kmh W 3.0 mph4.8 kmh 30.17 in1021.7 mb 0.00 in0.0 mm 0.00 in0.0 mm 0.00 in0.0 mm
01:08 AM 58.3°F14.6°C 38.7°F3.7°C 48% 1.2 mph WNW1.9 kmh WNW 3.0 mph4.8 kmh 30.16 in1021.3 mb 0.00 in0.0 mm 0.00 in0.0 mm 0.00 in0.0 mm
01:13 AM 58.3°F14.6°C 38.7°F3.7°C 48% 1.1 mph WNW1.8 kmh WNW 3.0 mph4.8 kmh 30.16 in1021.3 mb 0.00 in0.0 mm 0.00 in0.0 mm 0.00 in0.0 mm
01:18 AM 58.5°F14.7°C 38.9°F3.8°C 48% 1.4 mph WNW2.3 kmh WNW 3.0 mph4.8 kmh 30.16 in1021.3 mb 0.00 in0.0 mm 0.00 in0.0 mm 0.00 in0.0 mm
01:23 AM 58.6°F14.8°C 38.4°F3.6°C 47% 1.5 mph WNW2.4 kmh WNW 3.0 mph4.8 kmh 30.16 in1021.3 mb 0.00 in0.0 mm 0.00 in0.0 mm 0.00 in0.0 mm
01:28 AM 58.6°F14.8°C 38.4°F3.6°C 47% 1.6 mph WNW2.6 kmh WNW 3.0 mph4.8 kmh 30.16 in1021.3 mb 0.00 in0.0 mm 0.00 in0.0 mm 0.00 in0.0 mm
01:33 AM 58.6°F14.8°C 38.4°F3.6°C 47% 1.5 mph WNW2.4 kmh WNW 4.0 mph6.4 kmh 30.16 in1021.3 mb 0.00 in0.0 mm 0.00 in0.0 mm 0.00 in0.0 mm
01:38 AM 58.6°F14.8°C 38.4°F3.6°C 47% 2.3 mph WNW3.7 kmh WNW 4.0 mph6.4 kmh 30.16 in1021.3 mb 0.00 in0.0 mm 0.00 in0.0 mm 0.00 in0.0 mm
01:43 AM 58.6°F14.8°C 38.4°F3.6°C 47% 2.5 mph WNW4.0 kmh WNW 4.0 mph6.4 kmh 30.16 in1021.3 mb 0.00 in0.0 mm 0.00 in0.0 mm 0.00 in0.0 mm
01:48 AM 58.7°F14.8°C 38.5°F3.6°C 47% 2.6 mph WNW4.2 kmh WNW 5.0 mph8.0 kmh 30.16 in1021.3 mb 0.00 in0.0 mm 0.00 in0.0 mm 0.00 in0.0 mm
01:53 AM 58.8°F14.9°C 38.6°F3.7°C 47% 2.7 mph WNW4.3 kmh WNW 5.0 mph8.0 kmh 30.16 in1021.3 mb 0.00 in0.0 mm 0.00 in0.0 mm 0.00 in0.0 mm
01:58 AM 58.9°F14.9°C 38.7°F3.7°C 47% 3.3 mph WNW5.3 kmh WNW 6.0 mph9.7 kmh 30.15 in1021.0 mb 0.00 in0.0 mm 0.00 in0.0 mm 0.00 in0.0 mm
02:03 AM 59.0°F15.0°C 38.2°F3.4°C 46% 2.8 mph WNW4.5 kmh WNW 6.0 mph9.7 kmh 30.16 in1021.3 mb 0.00 in0.0 mm 0.00 in0.0 mm 0.00 in0.0 mm
02:08 AM 59.1°F15.1°C 38.3°F3.5°C 46% 2.3 mph WNW3.7 kmh WNW 6.0 mph9.7 kmh 30.15 in1021.0 mb 0.00 in0.0 mm 0.00 in0.0 mm 0.00 in0.0 mm
02:13 AM 59.0°F15.0°C 38.2°F3.4°C 46% 2.9 mph WNW4.7 kmh WNW 6.0 mph9.7 kmh 30.15 in1021.0 mb 0.00 in0.0 mm 0.00 in0.0 mm 0.00 in0.0 mm
02:18 AM 58.9°F14.9°C 38.7°F3.7°C 47% 2.2 mph NW3.5 kmh NW 5.0 mph8.0 kmh 30.15 in1021.0 mb 0.00 in0.0 mm 0.00 in0.0 mm 0.00 in0.0 mm
02:23 AM 58.8°F14.9°C 38.6°F3.7°C 47% 1.8 mph WNW2.9 kmh WNW 5.0 mph8.0 kmh 30.15 in1021.0 mb 0.00 in0.0 mm 0.00 in0.0 mm 0.00 in0.0 mm
02:28 AM 58.6°F14.8°C 38.4°F3.6°C 47% 1.7 mph WNW2.7 kmh WNW 5.0 mph8.0 kmh 30.15 in1021.0 mb 0.00 in0.0 mm 0.00 in0.0 mm 0.00 in0.0 mm
02:33 AM 58.4°F14.7°C 38.8°F3.8°C 48% 1.1 mph NW1.8 kmh NW 4.0 mph6.4 kmh 30.15 in1021.0 mb 0.00 in0.0 mm 0.00 in0.0 mm 0.00 in0.0 mm
02:37 AM 58.2°F14.6°C 38.6°F3.7°C 48% 1.0 mph WNW1.6 kmh WNW 4.0 mph6.4 kmh 30.15 in1021.0 mb 0.00 in0.0 mm 0.00 in0.0 mm 0.00 in0.0 mm
02:42 AM 58.2°F14.6°C 38.6°F3.7°C 48% 1.2 mph WNW1.9 kmh WNW 3.0 mph4.8 kmh 30.15 in1021.0 mb 0.00 in0.0 mm 0.00 in0.0 mm 0.00 in0.0 mm
02:47 AM 58.4°F14.7°C 38.8°F3.8°C 48% 1.7 mph WNW2.7 kmh WNW 3.0 mph4.8 kmh 30.15 in1021.0 mb 0.00 in0.0 mm 0.00 in0.0 mm 0.00 in0.0 mm
02:52 AM 58.4°F14.7°C 38.2°F3.4°C 47% 1.5 mph WNW2.4 kmh WNW 4.0 mph6.4 kmh 30.15 in1021.0 mb 0.00 in0.0 mm 0.00 in0.0 mm 0.00 in0.0 mm
02:57 AM 58.3°F14.6°C 38.7°F3.7°C 48% 1.7 mph WNW2.7 kmh WNW 4.0 mph6.4 kmh 30.15 in1021.0 mb 0.00 in0.0 mm 0.00 in0.0 mm 0.00 in0.0 mm
03:02 AM 58.2°F14.6°C 38.6°F3.7°C 48% 1.5 mph WNW2.4 kmh WNW 4.0 mph6.4 kmh 30.15 in1021.0 mb 0.00 in0.0 mm 0.00 in0.0 mm 0.00 in0.0 mm
03:07 AM 58.0°F14.4°C 38.4°F3.6°C 48% 1.4 mph W2.3 kmh W 4.0 mph6.4 kmh 30.15 in1021.0 mb 0.00 in0.0 mm 0.00 in0.0 mm 0.00 in0.0 mm
03:12 AM 58.0°F14.4°C 38.4°F3.6°C 48% 1.9 mph WNW3.1 kmh WNW 3.0 mph4.8 kmh 30.16 in1021.3 mb 0.00 in0.0 mm 0.00 in0.0 mm 0.00 in0.0 mm
03:17 AM 57.9°F14.4°C 38.3°F3.5°C 48% 2.1 mph WNW3.4 kmh WNW 4.0 mph6.4 kmh 30.15 in1021.0 mb 0.00 in0.0 mm 0.00 in0.0 mm 0.00 in0.0 mm
03:22 AM 57.9°F14.4°C 38.3°F3.5°C 48% 2.2 mph WNW3.5 kmh WNW 4.0 mph6.4 kmh 30.16 in1021.3 mb 0.00 in0.0 mm 0.00 in0.0 mm 0.00 in0.0 mm
03:27 AM 57.8°F14.3°C 38.7°F3.7°C 49% 1.5 mph WNW2.4 kmh WNW 4.0 mph6.4 kmh 30.16 in1021.3 mb 0.00 in0.0 mm 0.00 in0.0 mm 0.00 in0.0 mm
03:32 AM 57.6°F14.2°C 38.6°F3.7°C 49% 1.9 mph WNW3.1 kmh WNW 4.0 mph6.4 kmh 30.16 in1021.3 mb 0.00 in0.0 mm 0.00 in0.0 mm 0.00 in0.0 mm
03:37 AM 57.3°F14.1°C 38.8°F3.8°C 50% 1.7 mph WNW2.7 kmh WNW 4.0 mph6.4 kmh 30.16 in1021.3 mb 0.00 in0.0 mm 0.00 in0.0 mm 0.00 in0.0 mm
03:42 AM 57.1°F13.9°C 38.6°F3.7°C 50% 2.0 mph WNW3.2 kmh WNW 4.0 mph6.4 kmh 30.16 in1021.3 mb 0.00 in0.0 mm 0.00 in0.0 mm 0.00 in0.0 mm
03:47 AM 57.0°F13.9°C 39.1°F3.9°C 51% 1.0 mph WNW1.6 kmh WNW 4.0 mph6.4 kmh 30.16 in1021.3 mb 0.00 in0.0 mm 0.00 in0.0 mm 0.00 in0.0 mm
03:52 AM 56.8°F13.8°C 38.9°F3.8°C 51% 1.0 mph NW1.6 kmh NW 3.0 mph4.8 kmh 30.16 in1021.3 mb 0.00 in0.0 mm 0.00 in0.0 mm 0.00 in0.0 mm
03:57 AM 56.5°F13.6°C 39.1°F3.9°C 52% 1.0 mph WNW1.6 kmh WNW 3.0 mph4.8 kmh 30.16 in1021.3 mb 0.00 in0.0 mm 0.00 in0.0 mm 0.00 in0.0 mm
04:02 AM 56.3°F13.5°C 38.9°F3.8°C 52% Calm Calm 2.0 mph3.2 kmh 30.16 in1021.3 mb 0.00 in0.0 mm 0.00 in0.0 mm 0.00 in0.0 mm
04:07 AM 56.1°F13.4°C 39.2°F4.0°C 53% 1.0 mph WNW1.6 kmh WNW 2.0 mph3.2 kmh 30.16 in1021.3 mb 0.00 in0.0 mm 0.00 in0.0 mm 0.00 in0.0 mm
04:12 AM 56.0°F13.3°C 39.1°F3.9°C 53% 1.0 mph WNW1.6 kmh WNW 1.0 mph1.6 kmh 30.16 in1021.3 mb 0.00 in0.0 mm 0.00 in0.0 mm 0.00 in0.0 mm
04:17 AM 55.6°F13.1°C 39.3°F4.1°C 54% Calm Calm 1.0 mph1.6 kmh 30.16 in1021.3 mb 0.00 in0.0 mm 0.00 in0.0 mm 0.00 in0.0 mm
04:22 AM 55.1°F12.8°C 39.2°F4.0°C 55% Calm Calm 1.0 mph1.6 kmh 30.16 in1021.3 mb 0.00 in0.0 mm 0.00 in0.0 mm 0.00 in0.0 mm
04:27 AM 54.6°F12.6°C 39.7°F4.3°C 57% 1.0 mph WNW1.6 kmh WNW 1.0 mph1.6 kmh 30.17 in1021.7 mb 0.00 in0.0 mm 0.00 in0.0 mm 0.00 in0.0 mm
04:32 AM 54.9°F12.7°C 39.6°F4.2°C 56% 1.0 mph WNW1.6 kmh WNW 1.0 mph1.6 kmh 30.17 in1021.7 mb 0.00 in0.0 mm 0.00 in0.0 mm 0.00 in0.0 mm
04:37 AM 55.0°F12.8°C 39.7°F4.3°C 56% Calm Calm 1.0 mph1.6 kmh 30.17 in1021.7 mb 0.00 in0.0 mm 0.00 in0.0 mm 0.00 in0.0 mm
04:42 AM 55.0°F12.8°C 39.7°F4.3°C 56% 1.1 mph WNW1.8 kmh WNW 2.0 mph3.2 kmh 30.17 in1021.7 mb 0.00 in0.0 mm 0.00 in0.0 mm 0.00 in0.0 mm
04:47 AM 55.1°F12.8°C 39.3°F4.1°C 55% 2.2 mph WNW3.5 kmh WNW 3.0 mph4.8 kmh 30.17 in1021.7 mb 0.00 in0.0 mm 0.00 in0.0 mm 0.00 in0.0 mm
04:52 AM 55.4°F13.0°C 39.0°F3.9°C 54% 1.5 mph NW2.4 kmh NW 3.0 mph4.8 kmh 30.17 in1021.7 mb 0.00 in0.0 mm 0.00 in0.0 mm 0.00 in0.0 mm
04:57 AM 55.5°F13.1°C 39.2°F4.0°C 54% 1.4 mph WNW2.3 kmh WNW 3.0 mph4.8 kmh 30.17 in1021.7 mb 0.00 in0.0 mm 0.00 in0.0 mm 0.00 in0.0 mm
05:02 AM 55.2°F12.9°C 39.4°F4.1°C 55% 1.4 mph WNW2.3 kmh WNW 3.0 mph4.8 kmh 30.17 in1021.7 mb 0.00 in0.0 mm 0.00 in0.0 mm 0.00 in0.0 mm
05:07 AM 54.8°F12.7°C 39.5°F4.2°C 56% 1.0 mph WNW1.6 kmh WNW 3.0 mph4.8 kmh 30.17 in1021.7 mb 0.00 in0.0 mm 0.00 in0.0 mm 0.00 in0.0 mm
05:12 AM 54.6°F12.6°C 39.3°F4.1°C 56% 1.3 mph NW2.1 kmh NW 3.0 mph4.8 kmh 30.18 in1022.0 mb 0.00 in0.0 mm 0.00 in0.0 mm 0.00 in0.0 mm
05:17 AM 54.5°F12.5°C 39.7°F4.3°C 57% 1.7 mph NW2.7 kmh NW 3.0 mph4.8 kmh 30.17 in1021.7 mb 0.00 in0.0 mm 0.00 in0.0 mm 0.00 in0.0 mm
05:22 AM 54.3°F12.4°C 39.4°F4.1°C 57% 1.4 mph WNW2.3 kmh WNW 3.0 mph4.8 kmh 30.18 in1022.0 mb 0.00 in0.0 mm 0.00 in0.0 mm 0.00 in0.0 mm
05:27 AM 54.4°F12.4°C 39.5°F4.2°C 57% 1.5 mph WNW2.4 kmh WNW 3.0 mph4.8 kmh 30.18 in1022.0 mb 0.00 in0.0 mm 0.00 in0.0 mm 0.00 in0.0 mm
05:32 AM 54.3°F12.4°C 39.9°F4.4°C 58% 1.0 mph WNW1.6 kmh WNW 3.0 mph4.8 kmh 30.18 in1022.0 mb 0.00 in0.0 mm 0.00 in0.0 mm 0.00 in0.0 mm
05:37 AM 54.2°F12.3°C 39.8°F4.3°C 58% 1.0 mph NW1.6 kmh NW 3.0 mph4.8 kmh 30.18 in1022.0 mb 0.00 in0.0 mm 0.00 in0.0 mm 0.00 in0.0 mm
05:42 AM 54.3°F12.4°C 39.9°F4.4°C 58% 1.0 mph WNW1.6 kmh WNW 3.0 mph4.8 kmh 30.18 in1022.0 mb 0.00 in0.0 mm 0.00 in0.0 mm 0.00 in0.0 mm
05:47 AM 54.4°F12.4°C 40.0°F4.4°C 58% 1.0 mph NW1.6 kmh NW 2.0 mph3.2 kmh 30.18 in1022.0 mb 0.00 in0.0 mm 0.00 in0.0 mm 0.00 in0.0 mm
05:52 AM 54.3°F12.4°C 39.8°F4.3°C 58% 1.0 mph NW1.6 kmh NW 2.0 mph3.2 kmh 30.18 in1022.0 mb 0.00 in0.0 mm 0.00 in0.0 mm 0.00 in0.0 mm
05:57 AM 54.5°F12.5°C 40.1°F4.5°C 58% 1.2 mph WNW1.9 kmh WNW 2.0 mph3.2 kmh 30.18 in1022.0 mb 0.00 in0.0 mm 0.00 in0.0 mm 0.00 in0.0 mm
06:02 AM 54.7°F12.6°C 39.8°F4.3°C 57% 2.0 mph WNW3.2 kmh WNW 3.0 mph4.8 kmh 30.18 in1022.0 mb 0.00 in0.0 mm 0.00 in0.0 mm 0.00 in0.0 mm
06:07 AM 54.9°F12.7°C 39.6°F4.2°C 56% 2.0 mph WNW3.2 kmh WNW 4.0 mph6.4 kmh 30.18 in1022.0 mb 0.00 in0.0 mm 0.00 in0.0 mm 0.00 in0.0 mm
06:12 AM 55.0°F12.8°C 39.7°F4.3°C 56% 1.9 mph WNW3.1 kmh WNW 4.0 mph6.4 kmh 30.19 in1022.4 mb 0.00 in0.0 mm 0.00 in0.0 mm 0.00 in0.0 mm
06:17 AM 55.2°F12.9°C 39.8°F4.3°C 56% 2.1 mph WNW3.4 kmh WNW 4.0 mph6.4 kmh 30.19 in1022.4 mb 0.00 in0.0 mm 0.00 in0.0 mm 0.00 in0.0 mm
06:22 AM 55.3°F12.9°C 39.9°F4.4°C 56% 2.2 mph NW3.5 kmh NW 4.0 mph6.4 kmh 30.19 in1022.4 mb 0.00 in0.0 mm 0.00 in0.0 mm 0.00 in0.0 mm
06:27 AM 55.3°F12.9°C 40.4°F4.7°C 57% 1.5 mph WNW2.4 kmh WNW 4.0 mph6.4 kmh 30.19 in1022.4 mb 0.00 in0.0 mm 0.00 in0.0 mm 0.00 in0.0 mm
06:32 AM 55.4°F13.0°C 40.5°F4.7°C 57% 1.2 mph NW1.9 kmh NW 4.0 mph6.4 kmh 30.19 in1022.4 mb 0.00 in0.0 mm 0.00 in0.0 mm 0.00 in0.0 mm
06:37 AM 55.5°F13.1°C 40.6°F4.8°C 57% 1.0 mph WNW1.6 kmh WNW 4.0 mph6.4 kmh 30.19 in1022.4 mb 0.00 in0.0 mm 0.00 in0.0 mm 0.00 in0.0 mm
06:42 AM 55.6°F13.1°C 40.7°F4.8°C 57% 1.4 mph WNW2.3 kmh WNW 3.0 mph4.8 kmh 30.19 in1022.4 mb 0.00 in0.0 mm 0.00 in0.0 mm 0.00 in0.0 mm
06:47 AM 55.7°F13.2°C 41.1°F5.1°C 58% 1.1 mph WNW1.8 kmh WNW 3.0 mph4.8 kmh 30.19 in1022.4 mb 0.00 in0.0 mm 0.00 in0.0 mm 0.00 in0.0 mm
06:52 AM 55.8°F13.2°C 41.2°F5.1°C 58% 1.0 mph WNW1.6 kmh WNW 3.0 mph4.8 kmh 30.19 in1022.4 mb 0.00 in0.0 mm 0.00 in0.0 mm 0.00 in0.0 mm
06:57 AM 56.0°F13.3°C 41.5°F5.3°C 58% 1.3 mph WNW2.1 kmh WNW 3.0 mph4.8 kmh 30.20 in1022.7 mb 0.00 in0.0 mm 0.00 in0.0 mm 0.00 in0.0 mm
07:02 AM 56.2°F13.4°C 41.7°F5.4°C 58% 1.6 mph WNW2.6 kmh WNW 3.0 mph4.8 kmh 30.20 in1022.7 mb 0.00 in0.0 mm 0.00 in0.0 mm 0.00 in0.0 mm
07:07 AM 56.6°F13.7°C 42.1°F5.6°C 58% 1.0 mph WNW1.6 kmh WNW 3.0 mph4.8 kmh 30.20 in1022.7 mb 0.00 in0.0 mm 0.00 in0.0 mm 0.00 in0.0 mm
07:12 AM 56.9°F13.8°C 42.4°F5.8°C 58% 1.1 mph NW1.8 kmh NW 3.0 mph4.8 kmh 30.20 in1022.7 mb 0.00 in0.0 mm 0.00 in0.0 mm 0.00 in0.0 mm
07:17 AM 57.1°F13.9°C 42.6°F5.9°C 58% 1.0 mph WNW1.6 kmh WNW 3.0 mph4.8 kmh 30.20 in1022.7 mb 0.00 in0.0 mm 0.00 in0.0 mm 0.00 in0.0 mm
07:22 AM 57.3°F14.1°C 42.7°F5.9°C 58% 1.5 mph NW2.4 kmh NW 3.0 mph4.8 kmh 30.20 in1022.7 mb 0.00 in0.0 mm 0.00 in0.0 mm 0.00 in0.0 mm
07:27 AM 57.6°F14.2°C 42.5°F5.8°C 57% 1.5 mph NW2.4 kmh NW 3.0 mph4.8 kmh 30.20 in1022.7 mb 0.00 in0.0 mm 0.00 in0.0 mm 0.00 in0.0 mm
07:32 AM 57.9°F14.4°C 42.8°F6.0°C 57% 1.5 mph NW2.4 kmh NW 3.0 mph4.8 kmh 30.20 in1022.7 mb 0.00 in0.0 mm 0.00 in0.0 mm 0.00 in0.0 mm
07:37 AM 58.2°F14.6°C 43.6°F6.4°C 58% 1.5 mph NW2.4 kmh NW 5.0 mph8.0 kmh 30.21 in1023.0 mb 0.00 in0.0 mm 0.00 in0.0 mm 0.00 in0.0 mm
07:42 AM 58.7°F14.8°C 44.5°F6.9°C 59% 1.2 mph NW1.9 kmh NW 5.0 mph8.0 kmh 30.21 in1023.0 mb 0.00 in0.0 mm 0.00 in0.0 mm 0.00 in0.0 mm
07:47 AM 59.1°F15.1°C 44.4°F6.9°C 58% 1.2 mph NW1.9 kmh NW 5.0 mph8.0 kmh 30.21 in1023.0 mb 0.00 in0.0 mm 0.00 in0.0 mm 0.00 in0.0 mm
07:52 AM 59.6°F15.3°C 44.9°F7.2°C 58% 1.1 mph NW1.8 kmh NW 5.0 mph8.0 kmh 30.21 in1023.0 mb 0.00 in0.0 mm 0.00 in0.0 mm 0.00 in0.0 mm
07:57 AM 60.0°F15.6°C 44.3°F6.8°C 56% 1.1 mph NW1.8 kmh NW 3.0 mph4.8 kmh 30.21 in1023.0 mb 0.00 in0.0 mm 0.00 in0.0 mm 0.00 in0.0 mm
08:02 AM 60.4°F15.8°C 44.7°F7.1°C 56% 1.1 mph NW1.8 kmh NW 3.0 mph4.8 kmh 30.21 in1023.0 mb 0.00 in0.0 mm 0.00 in0.0 mm 0.00 in0.0 mm
08:07 AM 60.6°F15.9°C 44.8°F7.1°C 56% 1.0 mph NW1.6 kmh NW 3.0 mph4.8 kmh 30.22 in1023.4 mb 0.00 in0.0 mm 0.00 in0.0 mm 0.00 in0.0 mm
08:12 AM 61.1°F16.2°C 44.8°F7.1°C 55% 1.0 mph N1.6 kmh N 3.0 mph4.8 kmh 30.22 in1023.4 mb 0.00 in0.0 mm 0.00 in0.0 mm 0.00 in0.0 mm
08:17 AM 61.4°F16.3°C 45.7°F7.6°C 56% 1.0 mph NW1.6 kmh NW 3.0 mph4.8 kmh 30.22 in1023.4 mb 0.00 in0.0 mm 0.00 in0.0 mm 0.00 in0.0 mm
08:22 AM 61.8°F16.6°C 45.5°F7.5°C 55% 1.0 mph NNW1.6 kmh NNW 3.0 mph4.8 kmh 30.22 in1023.4 mb 0.00 in0.0 mm 0.00 in0.0 mm 0.00 in0.0 mm
08:27 AM 62.2°F16.8°C 45.4°F7.4°C 54% 1.8 mph NNW2.9 kmh NNW 2.0 mph3.2 kmh 30.22 in1023.4 mb 0.00 in0.0 mm 0.00 in0.0 mm 0.00 in0.0 mm
08:32 AM 62.8°F17.1°C 46.5°F8.1°C 55% 1.0 mph NNW1.6 kmh NNW 2.0 mph3.2 kmh 30.22 in1023.4 mb 0.00 in0.0 mm 0.00 in0.0 mm 0.00 in0.0 mm
08:36 AM 63.3°F17.4°C 47.0°F8.3°C 55% Calm Calm 2.0 mph3.2 kmh 30.21 in1023.0 mb 0.00 in0.0 mm 0.00 in0.0 mm 0.00 in0.0 mm
08:41 AM 64.1°F17.8°C 47.2°F8.4°C 54% 1.0 mph NNW1.6 kmh NNW 3.0 mph4.8 kmh 30.22 in1023.4 mb 0.00 in0.0 mm 0.00 in0.0 mm 0.00 in0.0 mm
08:46 AM 64.2°F17.9°C 45.7°F7.6°C 51% 1.4 mph NNW2.3 kmh NNW 3.0 mph4.8 kmh 30.21 in1023.0 mb 0.00 in0.0 mm 0.00 in0.0 mm 0.00 in0.0 mm
08:51 AM 64.6°F18.1°C 47.7°F8.7°C 54% 1.0 mph NE1.6 kmh NE 3.0 mph4.8 kmh 30.22 in1023.4 mb 0.00 in0.0 mm 0.00 in0.0 mm 0.00 in0.0 mm
08:56 AM 65.0°F18.3°C 45.4°F7.4°C 49% 1.5 mph NNE2.4 kmh NNE 3.0 mph4.8 kmh 30.22 in1023.4 mb 0.00 in0.0 mm 0.00 in0.0 mm 0.00 in0.0 mm
09:01 AM 65.5°F18.6°C 45.3°F7.4°C 48% 1.0 mph NNE1.6 kmh NNE 3.0 mph4.8 kmh 30.22 in1023.4 mb 0.00 in0.0 mm 0.00 in0.0 mm 0.00 in0.0 mm
09:06 AM 65.6°F18.7°C 45.4°F7.4°C 48% 1.7 mph NW2.7 kmh NW 3.0 mph4.8 kmh 30.22 in1023.4 mb 0.00 in0.0 mm 0.00 in0.0 mm 0.00 in0.0 mm
09:11 AM 65.7°F18.7°C 46.0°F7.8°C 49% 1.9 mph NE3.1 kmh NE 3.0 mph4.8 kmh 30.22 in1023.4 mb 0.00 in0.0 mm 0.00 in0.0 mm 0.00 in0.0 mm
09:16 AM 66.4°F19.1°C 46.7°F8.2°C 49% 1.0 mph NW1.6 kmh NW 3.0 mph4.8 kmh 30.22 in1023.4 mb 0.00 in0.0 mm 0.00 in0.0 mm 0.00 in0.0 mm
09:22 AM 66.7°F19.3°C 46.4°F8.0°C 48% 1.3 mph NE2.1 kmh NE 3.0 mph4.8 kmh 30.22 in1023.4 mb 0.00 in0.0 mm 0.00 in0.0 mm 0.00 in0.0 mm
09:27 AM 66.8°F19.3°C 44.7°F7.1°C 45% 2.1 mph NNW3.4 kmh NNW 4.0 mph6.4 kmh 30.22 in1023.4 mb 0.00 in0.0 mm 0.00 in0.0 mm 0.00 in0.0 mm
09:32 AM 67.2°F19.6°C 46.3°F7.9°C 47% 1.9 mph NE3.1 kmh NE 4.0 mph6.4 kmh 30.21 in1023.0 mb 0.00 in0.0 mm 0.00 in0.0 mm 0.00 in0.0 mm
09:37 AM 67.4°F19.7°C 44.7°F7.1°C 44% 1.5 mph NW2.4 kmh NW 4.0 mph6.4 kmh 30.22 in1023.4 mb 0.00 in0.0 mm 0.00 in0.0 mm 0.00 in0.0 mm
09:42 AM 67.3°F19.6°C 44.0°F6.7°C 43% 1.2 mph NW1.9 kmh NW 5.0 mph8.0 kmh 30.22 in1023.4 mb 0.00 in0.0 mm 0.00 in0.0 mm 0.00 in0.0 mm
09:47 AM 68.0°F20.0°C 45.3°F7.4°C 44% 2.2 mph NNW3.5 kmh NNW 5.0 mph8.0 kmh 30.22 in1023.4 mb 0.00 in0.0 mm 0.00 in0.0 mm 0.00 in0.0 mm
09:53 AM 68.3°F20.2°C 44.2°F6.8°C 42% 1.0 mph ENE1.6 kmh ENE 5.0 mph8.0 kmh 30.22 in1023.4 mb 0.00 in0.0 mm 0.00 in0.0 mm 0.00 in0.0 mm
09:58 AM 69.0°F20.6°C 44.2°F6.8°C 41% 1.0 mph NNE1.6 kmh NNE 3.0 mph4.8 kmh 30.22 in1023.4 mb 0.00 in0.0 mm 0.00 in0.0 mm 0.00 in0.0 mm
10:03 AM 69.2°F20.7°C 44.4°F6.9°C 41% 1.5 mph WNW2.4 kmh WNW 4.0 mph6.4 kmh 30.22 in1023.4 mb 0.00 in0.0 mm 0.00 in0.0 mm 0.00 in0.0 mm
10:08 AM 69.5°F20.8°C 44.0°F6.7°C 40% 1.4 mph NW2.3 kmh NW 4.0 mph6.4 kmh 30.22 in1023.4 mb 0.00 in0.0 mm 0.00 in0.0 mm 0.00 in0.0 mm
10:13 AM 69.7°F20.9°C 44.2°F6.8°C 40% 1.6 mph WNW2.6 kmh WNW 4.0 mph6.4 kmh 30.22 in1023.4 mb 0.00 in0.0 mm 0.00 in0.0 mm 0.00 in0.0 mm
10:18 AM 70.0°F21.1°C 45.1°F7.3°C 41% 1.0 mph W1.6 kmh W 5.0 mph8.0 kmh 30.22 in1023.4 mb 0.00 in0.0 mm 0.00 in0.0 mm 0.00 in0.0 mm
10:23 AM 71.4°F21.9°C 45.7°F7.6°C 40% 2.5 mph WSW4.0 kmh WSW 5.0 mph8.0 kmh 30.22 in1023.4 mb 0.00 in0.0 mm 0.00 in0.0 mm 0.00 in0.0 mm
10:28 AM 70.9°F21.6°C 43.9°F6.6°C 38% 1.2 mph WSW1.9 kmh WSW 5.0 mph8.0 kmh 30.22 in1023.4 mb 0.00 in0.0 mm 0.00 in0.0 mm 0.00 in0.0 mm
10:33 AM 70.7°F21.5°C 43.0°F6.1°C 37% 1.9 mph NW3.1 kmh NW 5.0 mph8.0 kmh 30.22 in1023.4 mb 0.00 in0.0 mm 0.00 in0.0 mm 0.00 in0.0 mm
10:38 AM 71.0°F21.7°C 42.5°F5.8°C 36% 1.7 mph NW2.7 kmh NW 5.0 mph8.0 kmh 30.22 in1023.4 mb 0.00 in0.0 mm 0.00 in0.0 mm 0.00 in0.0 mm
10:43 AM 71.2°F21.8°C 44.1°F6.7°C 38% 1.6 mph N2.6 kmh N 5.0 mph8.0 kmh 30.21 in1023.0 mb 0.00 in0.0 mm 0.00 in0.0 mm 0.00 in0.0 mm
10:48 AM 71.8°F22.1°C 44.7°F7.1°C 38% 1.6 mph NNW2.6 kmh NNW 5.0 mph8.0 kmh 30.21 in1023.0 mb 0.00 in0.0 mm 0.00 in0.0 mm 0.00 in0.0 mm
10:53 AM 72.0°F22.2°C 45.0°F7.2°C 38% 1.0 mph W1.6 kmh W 6.0 mph9.7 kmh 30.21 in1023.0 mb 0.00 in0.0 mm 0.00 in0.0 mm 0.00 in0.0 mm
10:58 AM 72.5°F22.5°C 43.9°F6.6°C 36% 1.3 mph NNW2.1 kmh NNW 6.0 mph9.7 kmh 30.21 in1023.0 mb 0.00 in0.0 mm 0.00 in0.0 mm 0.00 in0.0 mm
11:04 AM 72.5°F22.5°C 42.4°F5.8°C 34% 1.6 mph NW2.6 kmh NW 6.0 mph9.7 kmh 30.21 in1023.0 mb 0.00 in0.0 mm 0.00 in0.0 mm 0.00 in0.0 mm
11:09 AM 72.8°F22.7°C 44.1°F6.7°C 36% 2.6 mph NE4.2 kmh NE 6.0 mph9.7 kmh 30.21 in1023.0 mb 0.00 in0.0 mm 0.00 in0.0 mm 0.00 in0.0 mm
11:14 AM 73.2°F22.9°C 43.0°F6.1°C 34% 2.8 mph NNE4.5 kmh NNE 7.0 mph11.3 kmh 30.21 in1023.0 mb 0.00 in0.0 mm 0.00 in0.0 mm 0.00 in0.0 mm
11:19 AM 73.3°F22.9°C 43.1°F6.2°C 34% 3.4 mph NNE5.5 kmh NNE 10.0 mph16.1 kmh 30.21 in1023.0 mb 0.00 in0.0 mm 0.00 in0.0 mm 0.00 in0.0 mm
11:24 AM 73.3°F22.9°C 43.8°F6.6°C 35% 2.2 mph W3.5 kmh W 10.0 mph16.1 kmh 30.20 in1022.7 mb 0.00 in0.0 mm 0.00 in0.0 mm 0.00 in0.0 mm
11:29 AM 73.0°F22.8°C 42.8°F6.0°C 34% 2.6 mph NNW4.2 kmh NNW 10.0 mph16.1 kmh 30.20 in1022.7 mb 0.00 in0.0 mm 0.00 in0.0 mm 0.00 in0.0 mm
11:34 AM 73.2°F22.9°C 44.5°F6.9°C 36% 1.7 mph W2.7 kmh W 10.0 mph16.1 kmh 30.20 in1022.7 mb 0.00 in0.0 mm 0.00 in0.0 mm 0.00 in0.0 mm
11:39 AM 73.5°F23.1°C 44.0°F6.7°C 35% 3.0 mph NE4.8 kmh NE 9.0 mph14.5 kmh 30.20 in1022.7 mb 0.00 in0.0 mm 0.00 in0.0 mm 0.00 in0.0 mm
11:44 AM 73.4°F23.0°C 45.5°F7.5°C 37% 3.1 mph NNE5.0 kmh NNE 9.0 mph14.5 kmh 30.20 in1022.7 mb 0.00 in0.0 mm 0.00 in0.0 mm 0.00 in0.0 mm
11:50 AM 73.9°F23.3°C 45.1°F7.3°C 36% 2.7 mph NE4.3 kmh NE 9.0 mph14.5 kmh 30.20 in1022.7 mb 0.00 in0.0 mm 0.00 in0.0 mm 0.00 in0.0 mm
11:55 AM 74.0°F23.3°C 42.1°F5.6°C 32% 2.6 mph NNE4.2 kmh NNE 9.0 mph14.5 kmh 30.20 in1022.7 mb 0.00 in0.0 mm 0.00 in0.0 mm 0.00 in0.0 mm
12:00 PM 74.0°F23.3°C 43.7°F6.5°C 34% 3.9 mph NE6.3 kmh NE 9.0 mph14.5 kmh 30.19 in1022.4 mb 0.00 in0.0 mm 0.00 in0.0 mm 0.00 in0.0 mm
12:05 PM 74.4°F23.6°C 44.8°F7.1°C 35% 3.0 mph N4.8 kmh N 7.0 mph11.3 kmh 30.19 in1022.4 mb 0.00 in0.0 mm 0.00 in0.0 mm 0.00 in0.0 mm
12:10 PM 74.3°F23.5°C 44.1°F6.7°C 34% 2.1 mph NE3.4 kmh NE 7.0 mph11.3 kmh 30.19 in1022.4 mb 0.00 in0.0 mm 0.00 in0.0 mm 0.00 in0.0 mm
12:15 PM 74.2°F23.4°C 45.5°F7.5°C 36% 2.5 mph N4.0 kmh N 7.0 mph11.3 kmh 30.19 in1022.4 mb 0.00 in0.0 mm 0.00 in0.0 mm 0.00 in0.0 mm
12:20 PM 74.4°F23.6°C 43.2°F6.2°C 33% 1.0 mph ESE1.6 kmh ESE 5.0 mph8.0 kmh 30.18 in1022.0 mb 0.00 in0.0 mm 0.00 in0.0 mm 0.00 in0.0 mm
12:26 PM 75.3°F24.1°C 44.0°F6.7°C 33% 3.1 mph WNW5.0 kmh WNW 6.0 mph9.7 kmh 30.18 in1022.0 mb 0.00 in0.0 mm 0.00 in0.0 mm 0.00 in0.0 mm
12:31 PM 75.5°F24.2°C 44.2°F6.8°C 33% 1.3 mph NNW2.1 kmh NNW 6.0 mph9.7 kmh 30.18 in1022.0 mb 0.00 in0.0 mm 0.00 in0.0 mm 0.00 in0.0 mm
12:36 PM 75.6°F24.2°C 42.7°F5.9°C 31% 3.9 mph WNW6.3 kmh WNW 7.0 mph11.3 kmh 30.18 in1022.0 mb 0.00 in0.0 mm 0.00 in0.0 mm 0.00 in0.0 mm
12:41 PM 75.5°F24.2°C 43.4°F6.3°C 32% 1.6 mph W2.6 kmh W 7.0 mph11.3 kmh 30.18 in1022.0 mb 0.00 in0.0 mm 0.00 in0.0 mm 0.00 in0.0 mm
12:46 PM 76.0°F24.4°C 43.8°F6.6°C 32% 1.9 mph NNW3.1 kmh NNW 7.0 mph11.3 kmh 30.18 in1022.0 mb 0.00 in0.0 mm 0.00 in0.0 mm 0.00 in0.0 mm
12:51 PM 76.0°F24.4°C 43.2°F6.2°C 31% 1.1 mph NW1.8 kmh NW 7.0 mph11.3 kmh 30.18 in1022.0 mb 0.00 in0.0 mm 0.00 in0.0 mm 0.00 in0.0 mm
12:57 PM 76.3°F24.6°C 45.1°F7.3°C 33% 1.0 mph WSW1.6 kmh WSW 4.0 mph6.4 kmh 30.18 in1022.0 mb 0.00 in0.0 mm 0.00 in0.0 mm 0.00 in0.0 mm
01:02 PM 76.9°F24.9°C 44.6°F7.0°C 32% 1.4 mph ESE2.3 kmh ESE 4.0 mph6.4 kmh 30.17 in1021.7 mb 0.00 in0.0 mm 0.00 in0.0 mm 0.00 in0.0 mm
01:07 PM 77.1°F25.1°C 44.8°F7.1°C 32% 1.8 mph ENE2.9 kmh ENE 4.0 mph6.4 kmh 30.17 in1021.7 mb 0.00 in0.0 mm 0.00 in0.0 mm 0.00 in0.0 mm
01:12 PM 77.4°F25.2°C 44.2°F6.8°C 31% 1.1 mph N1.8 kmh N 5.0 mph8.0 kmh 30.17 in1021.7 mb 0.00 in0.0 mm 0.00 in0.0 mm 0.00 in0.0 mm
01:17 PM 77.9°F25.5°C 43.8°F6.6°C 30% 2.4 mph NNE3.9 kmh NNE 5.0 mph8.0 kmh 30.17 in1021.7 mb 0.00 in0.0 mm 0.00 in0.0 mm 0.00 in0.0 mm
01:22 PM 77.6°F25.3°C 39.9°F4.4°C 26% 2.9 mph W4.7 kmh W 5.0 mph8.0 kmh 30.17 in1021.7 mb 0.00 in0.0 mm 0.00 in0.0 mm 0.00 in0.0 mm
01:27 PM 77.9°F25.5°C 42.9°F6.1°C 29% 2.1 mph NW3.4 kmh NW 5.0 mph8.0 kmh 30.17 in1021.7 mb 0.00 in0.0 mm 0.00 in0.0 mm 0.00 in0.0 mm
01:33 PM 77.6°F25.3°C 41.8°F5.4°C 28% 4.1 mph NE6.6 kmh NE 7.0 mph11.3 kmh 30.16 in1021.3 mb 0.00 in0.0 mm 0.00 in0.0 mm 0.00 in0.0 mm
01:38 PM 77.1°F25.1°C 42.2°F5.7°C 29% 5.1 mph NE8.2 kmh NE 8.0 mph12.9 kmh 30.16 in1021.3 mb 0.00 in0.0 mm 0.00 in0.0 mm 0.00 in0.0 mm
01:43 PM 77.4°F25.2°C 44.2°F6.8°C 31% 3.5 mph ENE5.6 kmh ENE 8.0 mph12.9 kmh 30.16 in1021.3 mb 0.00 in0.0 mm 0.00 in0.0 mm 0.00 in0.0 mm
01:48 PM 78.1°F25.6°C 43.2°F6.2°C 29% 2.1 mph W3.4 kmh W 8.0 mph12.9 kmh 30.16 in1021.3 mb 0.00 in0.0 mm 0.00 in0.0 mm 0.00 in0.0 mm
01:53 PM 77.6°F25.3°C 43.5°F6.4°C 30% 2.9 mph W4.7 kmh W 8.0 mph12.9 kmh 30.16 in1021.3 mb 0.00 in0.0 mm 0.00 in0.0 mm 0.00 in0.0 mm
01:58 PM 78.3°F25.7°C 44.2°F6.8°C 30% 2.6 mph NE4.2 kmh NE 8.0 mph12.9 kmh 30.15 in1021.0 mb 0.00 in0.0 mm 0.00 in0.0 mm 0.00 in0.0 mm
02:03 PM 78.5°F25.8°C 43.4°F6.3°C 29% 2.5 mph NNE4.0 kmh NNE 8.0 mph12.9 kmh 30.15 in1021.0 mb 0.00 in0.0 mm 0.00 in0.0 mm 0.00 in0.0 mm
02:09 PM 78.2°F25.7°C 43.2°F6.2°C 29% 2.5 mph NW4.0 kmh NW 8.0 mph12.9 kmh 30.15 in1021.0 mb 0.00 in0.0 mm 0.00 in0.0 mm 0.00 in0.0 mm
02:14 PM 78.3°F25.7°C 42.4°F5.8°C 28% 1.0 mph NE1.6 kmh NE 7.0 mph11.3 kmh 30.15 in1021.0 mb 0.00 in0.0 mm 0.00 in0.0 mm 0.00 in0.0 mm
02:19 PM 78.5°F25.8°C 43.6°F6.4°C 29% 1.2 mph NNW1.9 kmh NNW 7.0 mph11.3 kmh 30.15 in1021.0 mb 0.00 in0.0 mm 0.00 in0.0 mm 0.00 in0.0 mm
02:24 PM 79.3°F26.3°C 44.1°F6.7°C 29% 2.9 mph NW4.7 kmh NW 7.0 mph11.3 kmh 30.15 in1021.0 mb 0.00 in0.0 mm 0.00 in0.0 mm 0.00 in0.0 mm
02:29 PM 79.1°F26.2°C 44.0°F6.7°C 29% 1.9 mph NNW3.1 kmh NNW 6.0 mph9.7 kmh 30.15 in1021.0 mb 0.00 in0.0 mm 0.00 in0.0 mm 0.00 in0.0 mm
02:33 PM 78.9°F26.1°C 45.5°F7.5°C 31% 2.3 mph NNW3.7 kmh NNW 6.0 mph9.7 kmh 30.14 in1020.7 mb 0.00 in0.0 mm 0.00 in0.0 mm 0.00 in0.0 mm
02:38 PM 79.2°F26.2°C 44.1°F6.7°C 29% 1.5 mph WSW2.4 kmh WSW 6.0 mph9.7 kmh 30.14 in1020.7 mb 0.00 in0.0 mm 0.00 in0.0 mm 0.00 in0.0 mm
02:44 PM 79.3°F26.3°C 45.0°F7.2°C 30% 2.4 mph E3.9 kmh E 6.0 mph9.7 kmh 30.14 in1020.7 mb 0.00 in0.0 mm 0.00 in0.0 mm 0.00 in0.0 mm
02:49 PM 79.4°F26.3°C 46.0°F7.8°C 31% 2.7 mph ENE4.3 kmh ENE 5.0 mph8.0 kmh 30.14 in1020.7 mb 0.00 in0.0 mm 0.00 in0.0 mm 0.00 in0.0 mm
02:54 PM 78.8°F26.0°C 44.6°F7.0°C 30% 1.3 mph E2.1 kmh E 7.0 mph11.3 kmh 30.13 in1020.3 mb 0.00 in0.0 mm 0.00 in0.0 mm 0.00 in0.0 mm
02:59 PM 78.9°F26.1°C 44.8°F7.1°C 30% 1.1 mph E1.8 kmh E 7.0 mph11.3 kmh 30.13 in1020.3 mb 0.00 in0.0 mm 0.00 in0.0 mm 0.00 in0.0 mm
03:04 PM 79.0°F26.1°C 44.8°F7.1°C 30% 1.4 mph E2.3 kmh E 7.0 mph11.3 kmh 30.13 in1020.3 mb 0.00 in0.0 mm 0.00 in0.0 mm 0.00 in0.0 mm
03:09 PM 79.5°F26.4°C 46.1°F7.8°C 31% 1.8 mph N2.9 kmh N 7.0 mph11.3 kmh 30.13 in1020.3 mb 0.00 in0.0 mm 0.00 in0.0 mm 0.00 in0.0 mm
03:15 PM 79.4°F26.3°C 46.8°F8.2°C 32% 2.9 mph NE4.7 kmh NE 6.0 mph9.7 kmh 30.13 in1020.3 mb 0.00 in0.0 mm 0.00 in0.0 mm 0.00 in0.0 mm
03:20 PM 79.0°F26.1°C 44.8°F7.1°C 30% 3.1 mph E5.0 kmh E 6.0 mph9.7 kmh 30.13 in1020.3 mb 0.00 in0.0 mm 0.00 in0.0 mm 0.00 in0.0 mm
03:25 PM 79.0°F26.1°C 44.9°F7.2°C 30% 1.3 mph ESE2.1 kmh ESE 6.0 mph9.7 kmh 30.13 in1020.3 mb 0.00 in0.0 mm 0.00 in0.0 mm 0.00 in0.0 mm
03:30 PM 79.7°F26.5°C 45.4°F7.4°C 30% 1.1 mph ESE1.8 kmh ESE 6.0 mph9.7 kmh 30.13 in1020.3 mb 0.00 in0.0 mm 0.00 in0.0 mm 0.00 in0.0 mm
03:35 PM 80.2°F26.8°C 46.7°F8.2°C 31% 1.0 mph E1.6 kmh E 5.0 mph8.0 kmh 30.12 in1020.0 mb 0.00 in0.0 mm 0.00 in0.0 mm 0.00 in0.0 mm
03:40 PM 80.5°F26.9°C 46.2°F7.9°C 30% 2.7 mph NE4.3 kmh NE 5.0 mph8.0 kmh 30.12 in1020.0 mb 0.00 in0.0 mm 0.00 in0.0 mm 0.00 in0.0 mm
03:45 PM 79.9°F26.6°C 47.3°F8.5°C 32% 1.7 mph NNW2.7 kmh NNW 6.0 mph9.7 kmh 30.12 in1020.0 mb 0.00 in0.0 mm 0.00 in0.0 mm 0.00 in0.0 mm
03:51 PM 80.1°F26.7°C 46.6°F8.1°C 31% 1.3 mph WNW2.1 kmh WNW 6.0 mph9.7 kmh 30.12 in1020.0 mb 0.00 in0.0 mm 0.00 in0.0 mm 0.00 in0.0 mm
03:56 PM 80.7°F27.1°C 46.2°F7.9°C 30% 2.5 mph NW4.0 kmh NW 6.0 mph9.7 kmh 30.12 in1020.0 mb 0.00 in0.0 mm 0.00 in0.0 mm 0.00 in0.0 mm
04:01 PM 80.5°F26.9°C 46.1°F7.8°C 30% 2.0 mph NE3.2 kmh NE 4.0 mph6.4 kmh 30.12 in1020.0 mb 0.00 in0.0 mm 0.00 in0.0 mm 0.00 in0.0 mm
04:06 PM 80.4°F26.9°C 46.8°F8.2°C 31% 1.0 mph NW1.6 kmh NW 4.0 mph6.4 kmh 30.12 in1020.0 mb 0.00 in0.0 mm 0.00 in0.0 mm 0.00 in0.0 mm
04:11 PM 80.7°F27.1°C 47.1°F8.4°C 31% 1.7 mph N2.7 kmh N 4.0 mph6.4 kmh 30.12 in1020.0 mb 0.00 in0.0 mm 0.00 in0.0 mm 0.00 in0.0 mm
04:16 PM 80.7°F27.1°C 46.2°F7.9°C 30% 1.0 mph NNE1.6 kmh NNE 4.0 mph6.4 kmh 30.12 in1020.0 mb 0.00 in0.0 mm 0.00 in0.0 mm 0.00 in0.0 mm
04:21 PM 81.1°F27.3°C 47.5°F8.6°C 31% 1.0 mph NE1.6 kmh NE 3.0 mph4.8 kmh 30.12 in1020.0 mb 0.00 in0.0 mm 0.00 in0.0 mm 0.00 in0.0 mm
04:27 PM 81.5°F27.5°C 46.9°F8.3°C 30% 1.6 mph W2.6 kmh W 3.0 mph4.8 kmh 30.12 in1020.0 mb 0.00 in0.0 mm 0.00 in0.0 mm 0.00 in0.0 mm
04:32 PM 81.6°F27.6°C 47.2°F8.4°C 30% 1.1 mph N1.8 kmh N 3.0 mph4.8 kmh 30.12 in1020.0 mb 0.00 in0.0 mm 0.00 in0.0 mm 0.00 in0.0 mm
04:37 PM 80.8°F27.1°C 48.0°F8.9°C 32% 2.1 mph NE3.4 kmh NE 5.0 mph8.0 kmh 30.12 in1020.0 mb 0.00 in0.0 mm 0.00 in0.0 mm 0.00 in0.0 mm
04:42 PM 80.5°F26.9°C 48.7°F9.3°C 33% 1.6 mph NE2.6 kmh NE 5.0 mph8.0 kmh 30.12 in1020.0 mb 0.00 in0.0 mm 0.00 in0.0 mm 0.00 in0.0 mm
04:47 PM 80.5°F26.9°C 47.8°F8.8°C 32% 1.3 mph E2.1 kmh E 5.0 mph8.0 kmh 30.12 in1020.0 mb 0.00 in0.0 mm 0.00 in0.0 mm 0.00 in0.0 mm
04:52 PM 80.5°F26.9°C 46.9°F8.3°C 31% 1.6 mph E2.6 kmh E 5.0 mph8.0 kmh 30.12 in1020.0 mb 0.00 in0.0 mm 0.00 in0.0 mm 0.00 in0.0 mm
04:58 PM 80.8°F27.1°C 47.2°F8.4°C 31% 1.3 mph W2.1 kmh W 3.0 mph4.8 kmh 30.12 in1020.0 mb 0.00 in0.0 mm 0.00 in0.0 mm 0.00 in0.0 mm
05:03 PM 80.9°F27.2°C 47.3°F8.5°C 31% 1.5 mph W2.4 kmh W 4.0 mph6.4 kmh 30.11 in1019.6 mb 0.00 in0.0 mm 0.00 in0.0 mm 0.00 in0.0 mm
05:08 PM 81.3°F27.4°C 48.5°F9.2°C 32% 1.2 mph WSW1.9 kmh WSW 4.0 mph6.4 kmh 30.12 in1020.0 mb 0.00 in0.0 mm 0.00 in0.0 mm 0.00 in0.0 mm
05:13 PM 81.4°F27.4°C 46.8°F8.2°C 30% 1.4 mph W2.3 kmh W 4.0 mph6.4 kmh 30.12 in1020.0 mb 0.00 in0.0 mm 0.00 in0.0 mm 0.00 in0.0 mm
05:18 PM 81.2°F27.3°C 47.5°F8.6°C 31% Calm Calm 4.0 mph6.4 kmh 30.12 in1020.0 mb 0.00 in0.0 mm 0.00 in0.0 mm 0.00 in0.0 mm
05:23 PM 81.7°F27.6°C 48.0°F8.9°C 31% 1.1 mph W1.8 kmh W 4.0 mph6.4 kmh 30.12 in1020.0 mb 0.00 in0.0 mm 0.00 in0.0 mm 0.00 in0.0 mm
05:28 PM 81.5°F27.5°C 47.1°F8.4°C 30% 1.5 mph WNW2.4 kmh WNW 4.0 mph6.4 kmh 30.12 in1020.0 mb 0.00 in0.0 mm 0.00 in0.0 mm 0.00 in0.0 mm
05:34 PM 81.5°F27.5°C 46.9°F8.3°C 30% 1.0 mph WNW1.6 kmh WNW 2.0 mph3.2 kmh 30.12 in1020.0 mb 0.00 in0.0 mm 0.00 in0.0 mm 0.00 in0.0 mm
05:39 PM 81.5°F27.5°C 48.7°F9.3°C 32% 1.3 mph SSW2.1 kmh SSW 2.0 mph3.2 kmh 30.12 in1020.0 mb 0.00 in0.0 mm 0.00 in0.0 mm 0.00 in0.0 mm
05:44 PM 81.2°F27.3°C 47.5°F8.6°C 31% 1.0 mph SW1.6 kmh SW 5.0 mph8.0 kmh 30.12 in1020.0 mb 0.00 in0.0 mm 0.00 in0.0 mm 0.00 in0.0 mm
05:49 PM 81.6°F27.6°C 47.9°F8.8°C 31% 2.3 mph SW3.7 kmh SW 5.0 mph8.0 kmh 30.12 in1020.0 mb 0.00 in0.0 mm 0.00 in0.0 mm 0.00 in0.0 mm
05:54 PM 81.0°F27.2°C 46.5°F8.1°C 30% 1.0 mph SW1.6 kmh SW 5.0 mph8.0 kmh 30.12 in1020.0 mb 0.00 in0.0 mm 0.00 in0.0 mm 0.00 in0.0 mm
05:59 PM 81.1°F27.3°C 47.5°F8.6°C 31% 1.0 mph SW1.6 kmh SW 5.0 mph8.0 kmh 30.12 in1020.0 mb 0.00 in0.0 mm 0.00 in0.0 mm 0.00 in0.0 mm
06:04 PM 81.6°F27.6°C 48.9°F9.4°C 32% Calm Calm 5.0 mph8.0 kmh 30.11 in1019.6 mb 0.00 in0.0 mm 0.00 in0.0 mm 0.00 in0.0 mm
06:10 PM 81.7°F27.6°C 48.8°F9.3°C 32% Calm Calm 3.0 mph4.8 kmh 30.11 in1019.6 mb 0.00 in0.0 mm 0.00 in0.0 mm 0.00 in0.0 mm
06:15 PM 81.5°F27.5°C 48.7°F9.3°C 32% 1.0 mph SW1.6 kmh SW 2.0 mph3.2 kmh 30.11 in1019.6 mb 0.00 in0.0 mm 0.00 in0.0 mm 0.00 in0.0 mm
06:20 PM 80.6°F27.0°C 48.7°F9.3°C 33% 1.8 mph SW2.9 kmh SW 5.0 mph8.0 kmh 30.11 in1019.6 mb 0.00 in0.0 mm 0.00 in0.0 mm 0.00 in0.0 mm
06:25 PM 79.9°F26.6°C 48.1°F8.9°C 33% 1.0 mph WSW1.6 kmh WSW 5.0 mph8.0 kmh 30.11 in1019.6 mb 0.00 in0.0 mm 0.00 in0.0 mm 0.00 in0.0 mm
06:30 PM 79.8°F26.6°C 48.8°F9.3°C 34% 1.0 mph WSW1.6 kmh WSW 5.0 mph8.0 kmh 30.11 in1019.6 mb 0.00 in0.0 mm 0.00 in0.0 mm 0.00 in0.0 mm
06:35 PM 79.7°F26.5°C 47.9°F8.8°C 33% Calm Calm 5.0 mph8.0 kmh 30.11 in1019.6 mb 0.00 in0.0 mm 0.00 in0.0 mm 0.00 in0.0 mm
06:41 PM 79.5°F26.4°C 48.5°F9.2°C 34% 1.2 mph SW1.9 kmh SW 3.0 mph4.8 kmh 30.11 in1019.6 mb 0.00 in0.0 mm 0.00 in0.0 mm 0.00 in0.0 mm
06:46 PM 79.3°F26.3°C 49.1°F9.5°C 35% Calm Calm 2.0 mph3.2 kmh 30.11 in1019.6 mb 0.00 in0.0 mm 0.00 in0.0 mm 0.00 in0.0 mm
06:51 PM 79.0°F26.1°C 48.1°F8.9°C 34% Calm Calm 2.0 mph3.2 kmh 30.11 in1019.6 mb 0.00 in0.0 mm 0.00 in0.0 mm 0.00 in0.0 mm
06:56 PM 78.4°F25.8°C 48.3°F9.1°C 35% Calm Calm 2.0 mph3.2 kmh 30.11 in1019.6 mb 0.00 in0.0 mm 0.00 in0.0 mm 0.00 in0.0 mm
07:01 PM 77.8°F25.4°C 48.7°F9.3°C 36% Calm Calm 2.0 mph3.2 kmh 30.11 in1019.6 mb 0.00 in0.0 mm 0.00 in0.0 mm 0.00 in0.0 mm
07:06 PM 77.2°F25.1°C 48.0°F8.9°C 36% Calm Calm 1.0 mph1.6 kmh 30.11 in1019.6 mb 0.00 in0.0 mm 0.00 in0.0 mm 0.00 in0.0 mm
07:11 PM 76.7°F24.8°C 47.7°F8.7°C 36% Calm Calm 1.0 mph1.6 kmh 30.11 in1019.6 mb 0.00 in0.0 mm 0.00 in0.0 mm 0.00 in0.0 mm
07:17 PM 76.3°F24.6°C 48.0°F8.9°C 37% Calm Calm 1.0 mph1.6 kmh 30.11 in1019.6 mb 0.00 in0.0 mm 0.00 in0.0 mm 0.00 in0.0 mm
07:22 PM 75.8°F24.3°C 48.3°F9.1°C 38% 1.0 mph SW1.6 kmh SW 1.0 mph1.6 kmh 30.11 in1019.6 mb 0.00 in0.0 mm 0.00 in0.0 mm 0.00 in0.0 mm
07:27 PM 75.5°F24.2°C 48.7°F9.3°C 39% Calm Calm 1.0 mph1.6 kmh 30.11 in1019.6 mb 0.00 in0.0 mm 0.00 in0.0 mm 0.00 in0.0 mm
07:31 PM 75.1°F23.9°C 48.3°F9.1°C 39% 1.0 mph SW1.6 kmh SW 1.0 mph1.6 kmh 30.11 in1019.6 mb 0.00 in0.0 mm 0.00 in0.0 mm 0.00 in0.0 mm
07:36 PM 74.9°F23.8°C 48.9°F9.4°C 40% 1.0 mph SW1.6 kmh SW 1.0 mph1.6 kmh 30.11 in1019.6 mb 0.00 in0.0 mm 0.00 in0.0 mm 0.00 in0.0 mm
07:41 PM 74.6°F23.7°C 48.6°F9.2°C 40% Calm Calm 1.0 mph1.6 kmh 30.11 in1019.6 mb 0.00 in0.0 mm 0.00 in0.0 mm 0.00 in0.0 mm
07:47 PM 74.4°F23.6°C 49.1°F9.5°C 41% 1.0 mph SW1.6 kmh SW 1.0 mph1.6 kmh 30.11 in1019.6 mb 0.00 in0.0 mm 0.00 in0.0 mm 0.00 in0.0 mm
07:52 PM 74.2°F23.4°C 48.9°F9.4°C 41% Calm Calm 1.0 mph1.6 kmh 30.11 in1019.6 mb 0.00 in0.0 mm 0.00 in0.0 mm 0.00 in0.0 mm
07:57 PM 74.0°F23.3°C 48.7°F9.3°C 41% 1.0 mph SW1.6 kmh SW 1.0 mph1.6 kmh 30.11 in1019.6 mb 0.00 in0.0 mm 0.00 in0.0 mm 0.00 in0.0 mm
08:02 PM 73.8°F23.2°C 48.5°F9.2°C 41% 1.0 mph SW1.6 kmh SW 1.0 mph1.6 kmh 30.11 in1019.6 mb 0.00 in0.0 mm 0.00 in0.0 mm 0.00 in0.0 mm
08:07 PM 73.4°F23.0°C 50.1°F10.1°C 44% Calm Calm 1.0 mph1.6 kmh 30.11 in1019.6 mb 0.00 in0.0 mm 0.00 in0.0 mm 0.00 in0.0 mm
08:12 PM 73.1°F22.8°C 50.5°F10.3°C 45% Calm Calm 1.0 mph1.6 kmh 30.12 in1020.0 mb 0.00 in0.0 mm 0.00 in0.0 mm 0.00 in0.0 mm
08:17 PM 72.8°F22.7°C 50.8°F10.4°C 46% 1.0 mph SW1.6 kmh SW 1.0 mph1.6 kmh 30.12 in1020.0 mb 0.00 in0.0 mm 0.00 in0.0 mm 0.00 in0.0 mm
08:23 PM 73.0°F22.8°C 49.1°F9.5°C 43% 1.0 mph SW1.6 kmh SW 3.0 mph4.8 kmh 30.12 in1020.0 mb 0.00 in0.0 mm 0.00 in0.0 mm 0.00 in0.0 mm
08:28 PM 72.9°F22.7°C 49.0°F9.4°C 43% 1.0 mph SW1.6 kmh SW 3.0 mph4.8 kmh 30.12 in1020.0 mb 0.00 in0.0 mm 0.00 in0.0 mm 0.00 in0.0 mm
08:33 PM 72.8°F22.7°C 48.3°F9.1°C 42% Calm Calm 3.0 mph4.8 kmh 30.12 in1020.0 mb 0.00 in0.0 mm 0.00 in0.0 mm 0.00 in0.0 mm
08:38 PM 72.9°F22.7°C 47.8°F8.8°C 41% Calm Calm 3.0 mph4.8 kmh 30.12 in1020.0 mb 0.00 in0.0 mm 0.00 in0.0 mm 0.00 in0.0 mm
08:43 PM 72.9°F22.7°C 47.7°F8.7°C 41% 1.0 mph SW1.6 kmh SW 1.0 mph1.6 kmh 30.12 in1020.0 mb 0.00 in0.0 mm 0.00 in0.0 mm 0.00 in0.0 mm
08:48 PM 73.0°F22.8°C 47.8°F8.8°C 41% 1.0 mph SW1.6 kmh SW 1.0 mph1.6 kmh 30.12 in1020.0 mb 0.00 in0.0 mm 0.00 in0.0 mm 0.00 in0.0 mm
08:54 PM 72.8°F22.7°C 48.3°F9.1°C 42% 1.4 mph SW2.3 kmh SW 2.0 mph3.2 kmh 30.12 in1020.0 mb 0.00 in0.0 mm 0.00 in0.0 mm 0.00 in0.0 mm
08:59 PM 72.5°F22.5°C 48.7°F9.3°C 43% 1.4 mph SW2.3 kmh SW 3.0 mph4.8 kmh 30.13 in1020.3 mb 0.00 in0.0 mm 0.00 in0.0 mm 0.00 in0.0 mm
09:04 PM 72.6°F22.6°C 47.5°F8.6°C 41% 1.5 mph SW2.4 kmh SW 3.0 mph4.8 kmh 30.13 in1020.3 mb 0.00 in0.0 mm 0.00 in0.0 mm 0.00 in0.0 mm
09:09 PM 72.6°F22.6°C 47.5°F8.6°C 41% 1.3 mph WSW2.1 kmh WSW 3.0 mph4.8 kmh 30.13 in1020.3 mb 0.00 in0.0 mm 0.00 in0.0 mm 0.00 in0.0 mm
09:14 PM 72.4°F22.4°C 47.3°F8.5°C 41% 1.2 mph SW1.9 kmh SW 3.0 mph4.8 kmh 30.13 in1020.3 mb 0.00 in0.0 mm 0.00 in0.0 mm 0.00 in0.0 mm
09:19 PM 72.2°F22.3°C 47.8°F8.8°C 42% 1.0 mph WSW1.6 kmh WSW 2.0 mph3.2 kmh 30.13 in1020.3 mb 0.00 in0.0 mm 0.00 in0.0 mm 0.00 in0.0 mm
09:24 PM 72.0°F22.2°C 48.2°F9.0°C 43% Calm Calm 2.0 mph3.2 kmh 30.13 in1020.3 mb 0.00 in0.0 mm 0.00 in0.0 mm 0.00 in0.0 mm
09:30 PM 71.6°F22.0°C 47.9°F8.8°C 43% Calm Calm 2.0 mph3.2 kmh 30.13 in1020.3 mb 0.00 in0.0 mm 0.00 in0.0 mm 0.00 in0.0 mm
09:35 PM 71.4°F21.9°C 47.7°F8.7°C 43% 1.1 mph SW1.8 kmh SW 2.0 mph3.2 kmh 30.13 in1020.3 mb 0.00 in0.0 mm 0.00 in0.0 mm 0.00 in0.0 mm
09:40 PM 70.9°F21.6°C 48.5°F9.2°C 45% 1.3 mph SW2.1 kmh SW 2.0 mph3.2 kmh 30.13 in1020.3 mb 0.00 in0.0 mm 0.00 in0.0 mm 0.00 in0.0 mm
09:45 PM 70.4°F21.3°C 49.2°F9.6°C 47% 1.4 mph SW2.3 kmh SW 3.0 mph4.8 kmh 30.13 in1020.3 mb 0.00 in0.0 mm 0.00 in0.0 mm 0.00 in0.0 mm
09:50 PM 69.4°F20.8°C 51.6°F10.9°C 53% 1.0 mph SW1.6 kmh SW 3.0 mph4.8 kmh 30.13 in1020.3 mb 0.00 in0.0 mm 0.00 in0.0 mm 0.00 in0.0 mm
09:55 PM 68.7°F20.4°C 51.0°F10.6°C 53% 1.2 mph SW1.9 kmh SW 3.0 mph4.8 kmh 30.13 in1020.3 mb 0.00 in0.0 mm 0.00 in0.0 mm 0.00 in0.0 mm
10:00 PM 68.9°F20.5°C 50.1°F10.1°C 51% 1.0 mph SW1.6 kmh SW 3.0 mph4.8 kmh 30.13 in1020.3 mb 0.00 in0.0 mm 0.00 in0.0 mm 0.00 in0.0 mm
10:06 PM 69.1°F20.6°C 49.2°F9.6°C 49% 1.0 mph SW1.6 kmh SW 2.0 mph3.2 kmh 30.13 in1020.3 mb 0.00 in0.0 mm 0.00 in0.0 mm 0.00 in0.0 mm
10:11 PM 68.8°F20.4°C 50.0°F10.0°C 51% 1.1 mph SW1.8 kmh SW 2.0 mph3.2 kmh 30.13 in1020.3 mb 0.00 in0.0 mm 0.00 in0.0 mm 0.00 in0.0 mm
10:16 PM 68.6°F20.3°C 49.3°F9.6°C 50% 1.7 mph SW2.7 kmh SW 3.0 mph4.8 kmh 30.13 in1020.3 mb 0.00 in0.0 mm 0.00 in0.0 mm 0.00 in0.0 mm
10:21 PM 68.7°F20.4°C 49.4°F9.7°C 50% 1.3 mph SW2.1 kmh SW 3.0 mph4.8 kmh 30.13 in1020.3 mb 0.00 in0.0 mm 0.00 in0.0 mm 0.00 in0.0 mm
10:26 PM 68.8°F20.4°C 48.9°F9.4°C 49% 1.3 mph SW2.1 kmh SW 3.0 mph4.8 kmh 30.13 in1020.3 mb 0.00 in0.0 mm 0.00 in0.0 mm 0.00 in0.0 mm
10:31 PM 68.7°F20.4°C 48.8°F9.3°C 49% 2.1 mph SW3.4 kmh SW 3.0 mph4.8 kmh 30.14 in1020.7 mb 0.00 in0.0 mm 0.00 in0.0 mm 0.00 in0.0 mm
10:37 PM 68.7°F20.4°C 48.8°F9.3°C 49% 2.2 mph SW3.5 kmh SW 4.0 mph6.4 kmh 30.14 in1020.7 mb 0.00 in0.0 mm 0.00 in0.0 mm 0.00 in0.0 mm
10:42 PM 68.7°F20.4°C 48.8°F9.3°C 49% 1.5 mph SW2.4 kmh SW 4.0 mph6.4 kmh 30.13 in1020.3 mb 0.00 in0.0 mm 0.00 in0.0 mm 0.00 in0.0 mm
10:47 PM 68.7°F20.4°C 48.8°F9.3°C 49% 1.7 mph SW2.7 kmh SW 4.0 mph6.4 kmh 30.14 in1020.7 mb 0.00 in0.0 mm 0.00 in0.0 mm 0.00 in0.0 mm
10:52 PM 68.7°F20.4°C 48.8°F9.3°C 49% 2.4 mph WSW3.9 kmh WSW 6.0 mph9.7 kmh 30.14 in1020.7 mb 0.00 in0.0 mm 0.00 in0.0 mm 0.00 in0.0 mm
10:57 PM 68.5°F20.3°C 48.6°F9.2°C 49% 2.1 mph SW3.4 kmh SW 6.0 mph9.7 kmh 30.14 in1020.7 mb 0.00 in0.0 mm 0.00 in0.0 mm 0.00 in0.0 mm
11:02 PM 68.4°F20.2°C 48.5°F9.2°C 49% 2.6 mph SW4.2 kmh SW 6.0 mph9.7 kmh 30.14 in1020.7 mb 0.00 in0.0 mm 0.00 in0.0 mm 0.00 in0.0 mm
11:07 PM 68.3°F20.2°C 48.4°F9.1°C 49% 2.0 mph SW3.2 kmh SW 6.0 mph9.7 kmh 30.14 in1020.7 mb 0.00 in0.0 mm 0.00 in0.0 mm 0.00 in0.0 mm
11:13 PM 68.1°F20.1°C 48.8°F9.3°C 50% 2.4 mph SW3.9 kmh SW 6.0 mph9.7 kmh 30.14 in1020.7 mb 0.00 in0.0 mm 0.00 in0.0 mm 0.00 in0.0 mm
11:18 PM 67.9°F19.9°C 49.2°F9.6°C 51% 1.3 mph SW2.1 kmh SW 6.0 mph9.7 kmh 30.14 in1020.7 mb 0.00 in0.0 mm 0.00 in0.0 mm 0.00 in0.0 mm
11:23 PM 67.2°F19.6°C 49.6°F9.8°C 53% 1.7 mph SW2.7 kmh SW 6.0 mph9.7 kmh 30.14 in1020.7 mb 0.00 in0.0 mm 0.00 in0.0 mm 0.00 in0.0 mm
11:28 PM 66.7°F19.3°C 49.6°F9.8°C 54% 1.7 mph SW2.7 kmh SW 6.0 mph9.7 kmh 30.14 in1020.7 mb 0.00 in0.0 mm 0.00 in0.0 mm 0.00 in0.0 mm
11:33 PM 66.2°F19.0°C 49.7°F9.8°C 55% 1.5 mph SW2.4 kmh SW 6.0 mph9.7 kmh 30.14 in1020.7 mb 0.00 in0.0 mm 0.00 in0.0 mm 0.00 in0.0 mm
11:38 PM 66.0°F18.9°C 49.5°F9.7°C 55% 1.8 mph SW2.9 kmh SW 6.0 mph9.7 kmh 30.14 in1020.7 mb 0.00 in0.0 mm 0.00 in0.0 mm 0.00 in0.0 mm
11:44 PM 66.0°F18.9°C 49.5°F9.7°C 55% 2.3 mph SW3.7 kmh SW 6.0 mph9.7 kmh 30.13 in1020.3 mb 0.00 in0.0 mm 0.00 in0.0 mm 0.00 in0.0 mm
11:49 PM 66.0°F18.9°C 49.5°F9.7°C 55% 1.5 mph SW2.4 kmh SW 4.0 mph6.4 kmh 30.14 in1020.7 mb 0.00 in0.0 mm 0.00 in0.0 mm 0.00 in0.0 mm
11:54 PM 65.8°F18.8°C 49.8°F9.9°C 56% 1.2 mph SW1.9 kmh SW 4.0 mph6.4 kmh 30.13 in1020.3 mb 0.00 in0.0 mm 0.00 in0.0 mm 0.00 in0.0 mm
11:59 PM 65.6°F18.7°C 49.6°F9.8°C 56% 1.5 mph SW2.4 kmh SW 4.0 mph6.4 kmh 30.13 in1020.3 mb 0.00 in0.0 mm 0.00 in0.0 mm 0.00 in0.0 mm